LDPL METAR and TAF | Updated Today

LDPL METAR

Pula Airport

Observation time: 5 min. ago

LDPL 291230Z 08008KT 050V110 9999 SCT045 OVC053 19/11 Q1006 TEMPO 08015KT

Need help? Read our tutorial on how to read METARs or read the parsed version below.

Pula Airport (LDPL) METAR

  • Weather conditions on Sun, 29 May 2022 12:30:00 +0000 (5 min. ago):
  • Present conditions: Dry
  • Clouds: Scattered at 1372 meters; overcast sky at 1615 meters
  • Visibility: Greater than 10 km
  • Wind: 80 degrees at 8 knots
  • Temperature: 19 celsius
  • Dew point: 11 celsius
  • Pressure: 1006 millibars
  • Remarks: None


Useful to know...

LDPL TAF

Pula Airport

TAF LDPL 291125Z 2912/3012 10008KT 9999 SCT045 TX19/3011Z TN10/3004Z TEMPO 2912/2917 08015KT
Observation time: 70 min. ago
Need help? Read our tutorial on how to read TAFs or read the parsed version below.

Parsed version of TAF for Pula Airport (LDPL)

  • From 29 May at 12:00 UTC, to day 30 of the month at 12:00 UTC
  • Clouds: Scattered at 1372 meters
  • Visibility: Greater than 10 km
  • Wind: 100 degrees at 8
  • Expected to arise temporarily, from 29 May at 12:00 UTC, to day 29 of the month at 17:00 UTC
  • Wind: 80 degrees at 15